KDTN/DTN METAR and TAF weather

Enter ICAO airport designator
Station Type Date Time Source
KDTN METAR 2018/01/19 16:53 UTC NOAA

KDTN 191653Z 19007KT 10SM BKN033 OVC050 07/M06 A3031 RMK AO2 SLP264 T00721056


Station Type Date Time Source
KDTN Decoded METAR 2018/01/19 16:53 UTC NOAA

SHREVEPORT DOWNTOWN AIRPORT, LA, United States (KDTN) 32-32N 093-45W 53M
Jan 19, 2018 - 11:53 AM EST / 2018.01.19 1653 UTC
Wind: from the S (190 degrees) at 8 MPH (7 KT):0
Visibility: 10 mile(s):0
Sky conditions: overcast
Temperature: 45.0 F (7.2 C)
Dew Point: 21.9 F (-5.6 C)
Relative Humidity: 39%
Pressure (altimeter): 30.31 in. Hg (1026 hPa)
ob: KDTN 191653Z 19007KT 10SM BKN033 OVC050 07/M06 A3031 RMK AO2 SLP264 T00721056
cycle: 17

Station Type Date Time Source
KDTN TAF UTC NOAA

Error!


Example: see airport list